createdAt,value
2022-12-29T00:02:04.663Z,99998.75
2022-12-29T00:07:01.455Z,99990.97
2022-12-29T00:11:57.974Z,99957.41
2022-12-29T00:16:52.077Z,99947.81
2022-12-29T00:21:55.032Z,99944.38
2022-12-29T00:27:02.998Z,99934.13
2022-12-29T00:32:13.432Z,99934.03
2022-12-29T00:37:07.869Z,99937.50
2022-12-29T00:42:10.247Z,99931.50
2022-12-29T00:47:06.633Z,99916.03
2022-12-29T00:51:59.747Z,99917.91
2022-12-29T00:57:02.111Z,99905.16
2022-12-29T01:02:09.543Z,99901.81
2022-12-29T01:07:05.198Z,99912.19
2022-12-29T01:11:55.577Z,99920.00
2022-12-29T01:16:47.118Z,99931.22
2022-12-29T01:21:38.944Z,99923.44
2022-12-29T01:26:38.097Z,99920.84
2022-12-29T01:36:40.159Z,99903.66
2022-12-29T01:41:37.202Z,99899.34
2022-12-29T01:46:34.254Z,99895.91
2022-12-29T01:51:28.949Z,99901.19
2022-12-29T01:56:29.553Z,99896.91
2022-12-29T02:01:31.812Z,99913.16
2022-12-29T02:06:35.215Z,99921.78
2022-12-29T02:11:28.940Z,99954.50
2022-12-29T02:16:55.739Z,99938.09
2022-12-29T02:22:22.044Z,99931.19
2022-12-29T02:27:45.715Z,99932.00
2022-12-29T02:32:51.677Z,99926.91
2022-12-29T02:37:49.367Z,99934.81
2022-12-29T02:42:53.849Z,99936.66
2022-12-29T02:47:55.575Z,99938.53
2022-12-29T02:52:55.024Z,99941.03
2022-12-29T02:57:49.246Z,99920.44
2022-12-29T03:03:03.946Z,99926.47
2022-12-29T03:08:06.971Z,99914.47
2022-12-29T03:13:23.248Z,99893.16
2022-12-29T03:18:29.142Z,99911.13
2022-12-29T03:23:26.674Z,99903.44
2022-12-29T03:28:23.506Z,99899.22
2022-12-29T03:33:21.116Z,99889.81
2022-12-29T03:38:31.994Z,99913.75
2022-12-29T03:43:37.969Z,99930.06
2022-12-29T03:48:37.237Z,99934.25
2022-12-29T03:53:28.604Z,99919.59
2022-12-29T03:58:18.499Z,99934.19
2022-12-29T04:03:19.889Z,99945.41
2022-12-29T04:08:18.219Z,99943.69
2022-12-29T04:13:28.978Z,99945.47
2022-12-29T04:18:23.092Z,99952.41
2022-12-29T04:23:20.578Z,99937.84
2022-12-29T04:28:15.789Z,99945.63
2022-12-29T04:33:43.057Z,99937.94
2022-12-29T04:38:48.871Z,99944.00
2022-12-29T04:43:43.211Z,99937.16
2022-12-29T04:49:03.140Z,99942.31
2022-12-29T04:54:33.215Z,99944.91
2022-12-29T04:59:32.328Z,99935.50
2022-12-29T05:04:29.013Z,99944.06
2022-12-29T05:09:22.926Z,99958.63
2022-12-29T05:14:21.379Z,99962.91
2022-12-29T05:19:35.764Z,99957.75
2022-12-29T05:24:26.805Z,99967.13
2022-12-29T05:29:23.995Z,99953.38
2022-12-29T05:34:20.319Z,99964.56
2022-12-29T05:39:19.023Z,99978.25
2022-12-29T05:44:30.279Z,99974.03
2022-12-29T05:49:43.003Z,99973.13
2022-12-29T05:55:01.574Z,99960.22
2022-12-29T05:59:59.000Z,99971.47
2022-12-29T06:04:53.162Z,99976.59
2022-12-29T06:09:50.518Z,100010.16
2022-12-29T06:14:40.515Z,100011.91
2022-12-29T06:19:33.091Z,100040.31
2022-12-29T06:24:24.704Z,100006.09
2022-12-29T06:29:18.350Z,100056.06
2022-12-29T06:34:10.229Z,100032.09
2022-12-29T06:39:09.007Z,100039.00
2022-12-29T06:44:03.514Z,100049.28
2022-12-29T06:49:12.490Z,100056.19
2022-12-29T06:54:10.099Z,100022.69
2022-12-29T06:59:14.344Z,100025.28
2022-12-29T07:04:11.166Z,100034.72
2022-12-29T07:09:08.130Z,100050.16
2022-12-29T07:14:02.037Z,100033.84
2022-12-29T07:19:02.543Z,100037.28
2022-12-29T07:23:55.946Z,100027.00
2022-12-29T07:28:50.414Z,100024.41
2022-12-29T07:33:44.754Z,100026.13
2022-12-29T07:38:35.045Z,100035.56
2022-12-29T07:43:27.605Z,100035.53
2022-12-29T07:48:59.954Z,100049.28
2022-12-29T07:53:53.758Z,100041.50
2022-12-29T07:58:51.668Z,100033.78
2022-12-29T08:03:43.031Z,100069.84
2022-12-29T08:08:48.370Z,100059.50
2022-12-29T08:13:41.230Z,100056.91
2022-12-29T08:18:34.615Z,100046.59
2022-12-29T08:23:26.726Z,100044.00
2022-12-29T08:28:21.379Z,100075.78
2022-12-29T08:33:15.553Z,100064.63
2022-12-29T08:38:12.666Z,100063.78
2022-12-29T08:43:06.381Z,100070.63
2022-12-29T08:47:59.360Z,100057.78
2022-12-29T08:52:58.719Z,100097.28
2022-12-29T08:57:50.645Z,100112.78
2022-12-29T09:02:46.531Z,100129.16
2022-12-29T09:07:43.552Z,100130.88
2022-12-29T09:12:39.864Z,100140.34
2022-12-29T09:17:48.098Z,100161.00
2022-12-29T09:22:46.818Z,100148.94
2022-12-29T09:27:40.377Z,100176.44
2022-12-29T09:32:40.388Z,100183.28
2022-12-29T09:37:42.643Z,100201.31
2022-12-29T09:42:43.396Z,100200.44
2022-12-29T09:47:36.509Z,100194.44
2022-12-29T09:52:31.318Z,100192.69
2022-12-29T09:57:29.062Z,100206.44
2022-12-29T10:02:36.854Z,100215.06
2022-12-29T10:07:37.997Z,100222.81
2022-12-29T10:12:47.120Z,100239.13
2022-12-29T10:17:47.325Z,100231.41
2022-12-29T10:22:54.396Z,100259.78
2022-12-29T10:27:55.499Z,100266.69
2022-12-29T10:32:58.663Z,100264.94
2022-12-29T10:38:00.860Z,100281.28
2022-12-29T10:43:01.571Z,100289.00
2022-12-29T10:48:01.312Z,100295.91
2022-12-29T10:53:02.187Z,100288.19
2022-12-29T10:58:01.603Z,100305.38
2022-12-29T11:03:16.866Z,100316.56
2022-12-29T11:08:34.114Z,100338.06
2022-12-29T11:13:39.420Z,100336.34
2022-12-29T11:18:46.977Z,100338.06
2022-12-29T11:23:44.166Z,100338.03
2022-12-29T11:28:47.656Z,100352.66
2022-12-29T11:33:44.839Z,100356.09
2022-12-29T11:38:43.485Z,100358.69
2022-12-29T11:43:38.610Z,100374.19
2022-12-29T11:48:37.575Z,100369.03
2022-12-29T11:53:31.446Z,100374.19
2022-12-29T11:58:33.938Z,100385.38
2022-12-29T12:03:32.116Z,100388.81
2022-12-29T12:08:36.037Z,100403.47
2022-12-29T12:13:38.989Z,100372.50
2022-12-29T12:18:41.786Z,100385.38
2022-12-29T12:23:51.565Z,100401.75
2022-12-29T12:28:52.070Z,100388.84
2022-12-29T12:33:48.778Z,100400.00
2022-12-29T12:38:55.116Z,100408.63
2022-12-29T12:43:55.921Z,100418.97
2022-12-29T12:49:12.977Z,100424.97
2022-12-29T12:54:25.270Z,100418.97
2022-12-29T12:59:30.188Z,100420.69
2022-12-29T13:04:50.555Z,100417.22
2022-12-29T13:09:58.655Z,100436.13
2022-12-29T13:15:04.823Z,100431.00
2022-12-29T13:20:07.549Z,100442.13
2022-12-29T13:25:19.009Z,100446.44
2022-12-29T13:30:14.137Z,100445.56
2022-12-29T13:35:23.261Z,100456.72
2022-12-29T13:40:24.103Z,100455.81
2022-12-29T13:45:25.135Z,100448.91
2022-12-29T13:50:21.436Z,100440.28
2022-12-29T13:55:50.312Z,100448.91
2022-12-29T14:00:58.118Z,100445.44
2022-12-29T14:06:07.120Z,100443.78
2022-12-29T14:11:13.602Z,100450.69
2022-12-29T14:16:30.099Z,100456.69
2022-12-29T14:21:30.268Z,100469.59
2022-12-29T14:26:40.289Z,100461.84
2022-12-29T14:31:45.736Z,100467.88
2022-12-29T14:36:41.224Z,100463.56
2022-12-29T14:41:43.956Z,100486.75
2022-12-29T14:47:00.024Z,100474.75
2022-12-29T14:51:55.118Z,100469.56
2022-12-29T14:56:54.729Z,100468.69
2022-12-29T15:01:53.274Z,100467.81
2022-12-29T15:06:56.081Z,100484.09
2022-12-29T15:11:56.465Z,100493.56
2022-12-29T15:16:54.625Z,100488.41
2022-12-29T15:21:56.596Z,100498.72
2022-12-29T15:26:57.093Z,100495.25
2022-12-29T15:32:07.232Z,100515.00
2022-12-29T15:37:05.098Z,100506.38
2022-12-29T15:42:10.110Z,100510.66
2022-12-29T15:47:09.893Z,100536.34
2022-12-29T15:52:08.435Z,100537.16
2022-12-29T15:57:02.941Z,100531.91
2022-12-29T16:01:55.648Z,100549.94
2022-12-29T16:07:00.455Z,100561.06
2022-12-29T16:11:55.537Z,100561.84
2022-12-29T16:16:58.247Z,100566.06
2022-12-29T16:21:54.683Z,100580.63
2022-12-29T16:27:07.534Z,100553.84
2022-12-29T16:32:11.806Z,100580.50
2022-12-29T16:37:10.651Z,100577.03
2022-12-29T16:42:05.329Z,100589.88
2022-12-29T16:47:24.973Z,100581.25
2022-12-29T16:52:22.545Z,100587.31
2022-12-29T16:57:17.482Z,100598.41
2022-12-29T17:02:23.220Z,100598.34
2022-12-29T17:07:32.504Z,100602.69
2022-12-29T17:12:46.793Z,100608.63
2022-12-29T17:18:02.347Z,100632.59
2022-12-29T17:22:56.895Z,100647.97
2022-12-29T17:28:06.196Z,100639.31
2022-12-29T17:33:10.695Z,100645.19
2022-12-29T17:38:06.685Z,100653.72
2022-12-29T17:43:01.581Z,100657.97
2022-12-29T17:48:05.932Z,100667.38
2022-12-29T17:53:09.634Z,100670.75
2022-12-29T17:58:00.681Z,100660.38
2022-12-29T18:02:57.018Z,100659.41
2022-12-29T18:07:57.114Z,100672.34
2022-12-29T18:12:56.936Z,100684.25
2022-12-29T18:17:52.297Z,100687.69
2022-12-29T18:22:51.648Z,100685.13
2022-12-29T18:27:50.394Z,100690.19
2022-12-29T18:32:42.420Z,100709.94
2022-12-29T18:37:34.471Z,100712.53
2022-12-29T18:42:30.655Z,100715.06
2022-12-29T18:47:24.366Z,100718.50
2022-12-29T18:52:21.975Z,100728.84
2022-12-29T18:57:13.640Z,100733.22
2022-12-29T19:02:26.882Z,100741.75
2022-12-29T19:07:19.161Z,100727.03
2022-12-29T19:12:28.116Z,100746.06
2022-12-29T19:17:27.259Z,100746.88
2022-12-29T19:22:46.592Z,100734.75
2022-12-29T19:27:44.198Z,100748.56
2022-12-29T19:32:39.187Z,100748.56
2022-12-29T19:37:32.318Z,100754.47
2022-12-29T19:42:31.400Z,100746.50
2022-12-29T19:47:36.746Z,100769.81
2022-12-29T19:52:36.075Z,100759.53
2022-12-29T19:57:29.782Z,100749.94
2022-12-29T20:02:31.693Z,100770.66
2022-12-29T20:07:32.630Z,100787.72
2022-12-29T20:12:33.608Z,100765.34
2022-12-29T20:18:02.602Z,100773.13
2022-12-29T20:22:46.214Z,100790.25
2022-12-29T20:27:42.783Z,100785.03
2022-12-29T20:32:36.771Z,100793.50
2022-12-29T20:37:45.099Z,100792.50
2022-12-29T20:42:59.110Z,100795.03
2022-12-29T20:47:54.557Z,100788.84
2022-12-29T20:52:47.889Z,100799.06
2022-12-29T21:03:05.150Z,100823.19
2022-12-29T21:08:03.926Z,100807.72
2022-12-29T21:13:01.706Z,100815.25
2022-12-29T21:17:52.007Z,100798.78
2022-12-29T21:22:41.837Z,100834.97
2022-12-29T21:27:32.534Z,100825.59
2022-12-29T21:32:26.364Z,100848.63
2022-12-29T21:37:23.740Z,100842.63
2022-12-29T21:42:22.456Z,100837.28
2022-12-29T21:47:15.172Z,100855.38
2022-12-29T21:52:12.179Z,100863.91
2022-12-29T21:57:04.386Z,100868.19
2022-12-29T22:02:11.632Z,100877.53
2022-12-29T22:07:16.183Z,100900.66
2022-12-29T22:17:28.914Z,100907.47
2022-12-29T22:22:24.162Z,100913.38
2022-12-29T22:27:16.605Z,100928.78
2022-12-29T22:32:08.030Z,100932.22
2022-12-29T22:36:59.917Z,100939.75
2022-12-29T22:42:05.701Z,100941.38
2022-12-29T22:47:05.078Z,100935.09
2022-12-29T22:51:58.147Z,100933.38
2022-12-29T22:56:54.851Z,100960.19
2022-12-29T23:01:53.209Z,100961.84
2022-12-29T23:06:46.256Z,100940.22
2022-12-29T23:11:40.724Z,100943.59
2022-12-29T23:16:37.322Z,100947.09
2022-12-29T23:21:33.672Z,100965.00
2022-12-29T23:26:31.323Z,100965.88
2022-12-29T23:31:24.051Z,100979.53
2022-12-29T23:36:22.720Z,100980.19
2022-12-29T23:41:23.794Z,101002.59
2022-12-29T23:46:17.524Z,100994.00
2022-12-29T23:51:08.361Z,101006.81
2022-12-29T23:56:02.223Z,101004.16
